Time;durP1;ratioP1;P1;durP2;ratioP2;P2;SDS_P1;SDS_P2;PMS_P1;PMS_P2;Temp;Humidity;BMP_temperature;BMP_pressure;BME280_temperature;BME280_humidity;BME280_pressure;Samples;Min_cycle;Max_cycle;Signal;HPM_P1;HPM_P2
2022/01/23 00:04:14;;;;;;;22.27;8.82;;;-1.70;99.90;;;;;;20824956;28;20033;-74
2022/01/23 00:34:54;;;;;;;17.27;8.43;;;-2.00;99.90;;;;;;20816401;28;20424;-75
2022/01/23 00:45:06;;;;;;;17.92;8.50;;;-2.00;99.90;;;;;;20822218;28;20065;-75
2022/01/23 00:55:07;;;;;;;17.05;8.20;;;-1.90;99.90;;;;;;20824691;28;20040;-74
2022/01/23 01:05:09;;;;;;;20.48;8.38;;;-2.30;99.90;;;;;;20823183;28;20496;-74
2022/01/23 01:35:47;;;;;;;22.92;9.93;;;-2.40;99.90;;;;;;20917092;28;20384;-74
2022/01/23 01:45:48;;;;;;;21.65;9.82;;;-2.30;99.90;;;;;;20917564;28;20511;-74
2022/01/23 01:55:55;;;;;;;22.52;9.82;;;-2.40;99.90;;;;;;20915311;28;20033;-74
2022/01/23 02:58:13;;;;;;;24.13;9.85;;;-2.50;99.90;;;;;;20912085;28;20086;-74
2022/01/23 03:39:08;;;;;;;24.35;9.27;;;-2.70;99.90;;;;;;20907755;28;20045;-74
2022/01/23 03:59:31;;;;;;;35.88;12.15;;;-2.20;99.90;;;;;;20906695;28;20048;-74
2022/01/23 04:09:36;;;;;;;30.00;11.70;;;-2.00;99.90;;;;;;20905866;28;20044;-74
2022/01/23 05:01:15;;;;;;;26.98;10.95;;;-1.50;99.90;;;;;;20920833;28;20398;-74
2022/01/23 05:11:26;;;;;;;25.15;11.10;;;-1.40;99.90;;;;;;20879814;28;20029;-73
2022/01/23 05:32:01;;;;;;;20.45;10.05;;;-1.10;99.90;;;;;;20836354;28;20091;-73
2022/01/23 05:42:07;;;;;;;25.52;12.93;;;-0.90;99.90;;;;;;20835702;28;20397;-73
2022/01/23 05:52:10;;;;;;;22.10;10.73;;;-0.90;99.90;;;;;;20833334;28;20033;-72
2022/01/23 06:02:40;;;;;;;27.80;13.13;;;-0.90;99.90;;;;;;20810588;28;20401;-74
2022/01/23 06:12:42;;;;;;;24.65;9.45;;;-0.90;99.90;;;;;;20831583;28;20029;-74
2022/01/23 06:22:46;;;;;;;27.38;12.48;;;-0.70;99.90;;;;;;20822846;28;20034;-74
2022/01/23 06:33:09;;;;;;;21.45;10.38;;;-0.60;99.90;;;;;;20802388;28;20068;-74
2022/01/23 06:43:10;;;;;;;31.42;11.95;;;-0.60;99.90;;;;;;20830550;28;20044;-74
2022/01/23 06:53:28;;;;;;;29.58;12.35;;;-0.60;99.90;;;;;;20828200;28;20048;-74
2022/01/23 07:03:30;;;;;;;20.88;10.55;;;-0.70;99.90;;;;;;20827761;28;20030;-74
2022/01/23 07:13:33;;;;;;;24.90;9.98;;;-0.60;99.90;;;;;;20857668;23;20049;-74
2022/01/23 07:24:10;;;;;;;47.95;23.02;;;-0.50;99.90;;;;;;20896734;28;20035;-74
2022/01/23 07:34:12;;;;;;;29.20;12.35;;;-0.40;99.90;;;;;;20894632;28;20033;-74
2022/01/23 07:44:13;;;;;;;27.13;12.13;;;-0.30;99.90;;;;;;20889234;28;20119;-74
2022/01/23 07:54:40;;;;;;;23.08;11.73;;;-0.10;99.90;;;;;;20877907;28;20437;-74
2022/01/23 08:05:00;;;;;;;25.88;10.85;;;0.00;99.90;;;;;;20908619;28;20127;-74
2022/01/23 08:15:02;;;;;;;19.98;10.52;;;0.30;99.90;;;;;;20885682;28;20025;-74
2022/01/23 08:25:05;;;;;;;16.15;8.02;;;0.40;99.90;;;;;;20919348;28;20028;-75
2022/01/23 08:35:06;;;;;;;15.02;7.63;;;0.60;99.90;;;;;;20927435;28;20035;-75
2022/01/23 08:45:07;;;;;;;22.80;10.15;;;1.00;99.90;;;;;;20920708;28;20024;-74
2022/01/23 08:55:09;;;;;;;28.50;11.82;;;1.30;99.90;;;;;;20903506;28;20029;-75
2022/01/23 09:05:10;;;;;;;26.13;12.50;;;1.30;99.90;;;;;;20861239;28;20481;-74
2022/01/23 09:15:11;;;;;;;21.98;8.93;;;1.50;99.90;;;;;;20915866;28;20044;-75
2022/01/23 09:25:12;;;;;;;20.92;8.90;;;1.80;99.90;;;;;;20927673;28;20498;-74
2022/01/23 09:35:14;;;;;;;21.05;8.30;;;2.40;99.90;;;;;;20917291;28;20048;-75
2022/01/23 09:45:15;;;;;;;15.88;7.10;;;2.60;99.90;;;;;;20879786;28;20109;-74
2022/01/23 09:55:19;;;;;;;18.65;7.70;;;2.80;99.90;;;;;;20883555;28;20443;-75
2022/01/23 10:05:22;;;;;;;18.48;8.40;;;2.90;99.90;;;;;;20891590;28;20560;-75
2022/01/23 10:15:27;;;;;;;15.75;8.65;;;3.20;99.90;;;;;;20883741;28;20037;-74
2022/01/23 10:25:30;;;;;;;16.58;7.50;;;3.40;99.90;;;;;;20889785;28;20037;-74
2022/01/23 10:35:32;;;;;;;18.00;8.70;;;3.60;99.90;;;;;;20885005;28;20033;-75
2022/01/23 10:56:05;;;;;;;15.93;8.40;;;3.80;99.90;;;;;;20917451;28;20162;-74
2022/01/23 11:06:12;;;;;;;9.77;5.33;;;4.40;99.90;;;;;;20899880;28;20104;-76
2022/01/23 11:27:02;;;;;;;14.13;6.65;;;4.50;99.90;;;;;;20922783;28;20110;-76
2022/01/23 11:37:03;;;;;;;12.25;7.20;;;4.60;99.90;;;;;;20897062;28;20037;-75
2022/01/23 11:57:41;;;;;;;11.40;6.53;;;4.90;99.90;;;;;;20871807;28;20051;-76
2022/01/23 12:08:20;;;;;;;8.05;4.50;;;5.10;99.90;;;;;;20961181;28;20069;-75
2022/01/23 12:18:29;;;;;;;8.80;4.82;;;4.90;99.90;;;;;;20907497;28;20033;-76
2022/01/23 12:28:33;;;;;;;14.30;5.85;;;5.00;99.90;;;;;;20915942;28;20498;-75
2022/01/23 12:38:46;;;;;;;9.45;3.88;;;5.00;99.90;;;;;;20931791;28;20037;-75
2022/01/23 12:48:49;;;;;;;11.93;6.10;;;4.90;99.90;;;;;;20931438;28;20470;-74
2022/01/23 12:58:59;;;;;;;7.18;3.22;;;5.20;99.90;;;;;;20933375;28;20115;-75
2022/01/23 13:30:04;;;;;;;4.53;2.65;;;5.40;99.90;;;;;;20837802;28;20034;-76
2022/01/23 13:40:16;;;;;;;5.60;2.50;;;5.30;99.90;;;;;;20838031;28;20486;-75
2022/01/23 14:01:17;;;;;;;8.55;4.40;;;5.40;99.90;;;;;;20804634;28;20046;-76
2022/01/23 14:11:26;;;;;;;8.70;3.07;;;5.30;99.90;;;;;;20834714;28;20048;-75
2022/01/23 14:21:43;;;;;;;8.10;2.95;;;5.20;99.90;;;;;;20833077;28;20029;-75
2022/01/23 14:31:44;;;;;;;6.18;3.38;;;5.20;99.90;;;;;;20833814;28;20518;-75
2022/01/23 14:41:46;;;;;;;8.30;4.45;;;5.20;99.90;;;;;;20833673;28;20041;-75
2022/01/23 14:51:47;;;;;;;7.93;4.13;;;5.00;99.90;;;;;;20830135;28;20029;-75
2022/01/23 15:01:48;;;;;;;7.85;4.43;;;5.00;99.90;;;;;;20830829;28;20029;-75
2022/01/23 15:11:50;;;;;;;9.00;5.03;;;5.00;99.90;;;;;;20828146;28;20030;-74
2022/01/23 15:21:51;;;;;;;9.15;4.75;;;5.00;99.90;;;;;;20829172;28;20033;-74
2022/01/23 15:31:52;;;;;;;10.13;5.13;;;5.10;99.90;;;;;;20827578;28;20033;-75
2022/01/23 15:41:53;;;;;;;9.80;4.68;;;5.00;99.90;;;;;;20827779;28;20282;-76
2022/01/23 15:51:53;;;;;;;7.28;3.97;;;4.80;99.90;;;;;;20832568;28;20064;-74
2022/01/23 16:01:54;;;;;;;6.77;3.30;;;4.70;99.90;;;;;;20824805;28;20175;-76
2022/01/23 16:11:55;;;;;;;6.55;3.20;;;4.60;99.90;;;;;;20825391;28;20056;-76
2022/01/23 16:21:56;;;;;;;7.82;3.47;;;4.40;99.90;;;;;;20827055;28;20029;-75
2022/01/23 16:31:59;;;;;;;4.95;3.22;;;4.00;99.90;;;;;;20828248;28;20133;-75
2022/01/23 16:42:00;;;;;;;4.43;2.88;;;3.80;99.90;;;;;;20834528;28;20034;-76
2022/01/23 16:52:01;;;;;;;;;;;3.70;99.90;;;;;;20844021;28;20048;-76
2022/01/23 17:02:02;;;;;;;7.28;3.35;;;3.60;99.90;;;;;;20835595;28;19920;-74
2022/01/23 17:12:03;;;;;;;;;;;3.50;99.90;;;;;;20838508;28;20045;-76
2022/01/23 17:22:04;;;;;;;4.27;2.43;;;3.30;99.90;;;;;;20811667;28;20003;-76
2022/01/23 17:32:08;;;;;;;;;;;3.10;99.90;;;;;;20819853;28;20048;-77
2022/01/23 17:42:09;;;;;;;13.38;4.50;;;3.10;99.90;;;;;;20812958;28;19917;-76
2022/01/23 17:52:10;;;;;;;10.20;5.03;;;2.90;99.90;;;;;;20818528;28;20132;-76
2022/01/23 18:02:14;;;;;;;15.18;5.63;;;2.60;99.90;;;;;;20825879;28;20112;-75
2022/01/23 18:12:15;;;;;;;13.90;6.15;;;2.40;99.90;;;;;;20840267;28;20098;-75
2022/01/23 18:22:16;;;;;;;14.52;6.38;;;2.20;99.90;;;;;;20775820;28;20140;-75
2022/01/23 18:32:18;;;;;;;14.95;6.32;;;2.10;99.90;;;;;;20789687;28;20424;-76
2022/01/23 18:42:20;;;;;;;14.38;7.15;;;2.20;99.90;;;;;;20723213;28;20037;-73
2022/01/23 18:52:21;;;;;;;13.05;6.68;;;2.10;99.90;;;;;;20772356;28;20120;-74
2022/01/23 19:02:27;;;;;;;13.93;6.53;;;2.00;99.90;;;;;;20833196;28;20075;-73
2022/01/23 19:12:31;;;;;;;13.43;7.35;;;1.90;99.90;;;;;;20856108;28;20513;-75
2022/01/23 19:22:32;;;;;;;16.98;7.63;;;1.70;99.90;;;;;;20914276;22;20071;-74
2022/01/23 19:32:35;;;;;;;14.90;7.22;;;1.70;99.90;;;;;;20815709;28;20471;-74
2022/01/23 19:43:12;;;;;;;14.30;7.10;;;1.60;99.90;;;;;;20825686;28;20033;-72
2022/01/23 19:53:03;;;;;;;14.35;7.60;;;1.60;99.90;;;;;;20799691;28;20053;-72
2022/01/23 20:03:04;;;;;;;18.10;8.13;;;1.60;99.90;;;;;;20807423;28;20037;-72
2022/01/23 20:13:05;;;;;;;16.02;7.20;;;1.40;99.90;;;;;;20823966;28;20061;-72
2022/01/23 20:23:06;;;;;;;14.05;7.75;;;1.30;99.90;;;;;;20806855;28;20037;-72
2022/01/23 20:33:06;;;;;;;16.67;8.25;;;1.30;99.90;;;;;;20824241;28;20087;-73
2022/01/23 20:43:08;;;;;;;21.10;9.25;;;1.30;99.90;;;;;;20823812;28;20398;-73
2022/01/23 20:53:48;;;;;;;19.90;8.15;;;1.20;99.90;;;;;;20823291;28;20112;-73
2022/01/23 21:03:30;;;;;;;16.40;8.80;;;0.90;99.90;;;;;;20805191;28;20419;-72
2022/01/23 21:13:37;;;;;;;17.58;8.73;;;0.90;99.90;;;;;;20822450;28;20030;-72
2022/01/23 21:44:01;;;;;;;19.02;8.75;;;0.90;99.90;;;;;;20792924;28;20504;-72
2022/01/23 21:54:02;;;;;;;19.35;9.27;;;1.00;99.90;;;;;;20792266;28;20056;-72
2022/01/23 22:04:03;;;;;;;17.30;8.38;;;1.10;99.90;;;;;;20821863;28;20108;-73
2022/01/23 22:34:43;;;;;;;19.70;8.77;;;0.90;99.90;;;;;;20831154;28;20034;-73
2022/01/23 22:45:31;;;;;;;19.88;9.65;;;0.80;99.90;;;;;;20830482;28;20037;-72
2022/01/23 22:55:05;;;;;;;17.85;8.82;;;0.90;99.90;;;;;;20816061;28;20050;-73
2022/01/23 23:05:06;;;;;;;14.18;7.90;;;0.80;99.90;;;;;;20829480;28;20037;-73
2022/01/23 23:15:14;;;;;;;18.20;8.73;;;0.70;99.90;;;;;;20828353;28;20045;-73
2022/01/23 23:25:14;;;;;;;18.48;8.55;;;0.60;99.90;;;;;;20793795;28;20033;-73
2022/01/23 23:35:15;;;;;;;21.40;8.90;;;0.50;99.90;;;;;;20827291;28;20026;-73
2022/01/23 23:45:17;;;;;;;19.52;8.93;;;0.40;99.90;;;;;;20826580;28;20033;-73
2022/01/23 23:55:18;;;;;;;15.93;7.85;;;0.20;99.90;;;;;;20825961;28;20044;-72
